createdAt,value
2023-01-09T00:01:37.481Z,7.70
2023-01-09T00:04:05.492Z,7.70
2023-01-09T00:06:32.217Z,7.80
2023-01-09T00:08:58.850Z,7.80
2023-01-09T00:11:26.197Z,7.80
2023-01-09T00:13:53.016Z,7.70
2023-01-09T00:16:20.604Z,7.70
2023-01-09T00:18:47.286Z,7.70
2023-01-09T00:21:16.871Z,7.70
2023-01-09T00:23:43.566Z,7.70
2023-01-09T00:26:13.071Z,7.70
2023-01-09T00:28:40.242Z,7.70
2023-01-09T00:31:07.903Z,7.70
2023-01-09T00:33:40.800Z,7.70
2023-01-09T00:36:07.962Z,7.70
2023-01-09T00:38:36.683Z,7.70
2023-01-09T00:41:06.288Z,7.70
2023-01-09T00:43:41.342Z,7.70
2023-01-09T00:46:08.582Z,7.70
2023-01-09T00:48:38.423Z,7.70
2023-01-09T00:51:08.688Z,7.70
2023-01-09T00:53:39.346Z,7.60
2023-01-09T00:56:09.817Z,7.60
2023-01-09T00:58:37.291Z,7.60
2023-01-09T01:01:06.468Z,7.60
2023-01-09T01:03:33.248Z,7.60
2023-01-09T01:06:21.590Z,7.60
2023-01-09T01:08:48.304Z,7.60
2023-01-09T01:11:15.083Z,7.60
2023-01-09T01:13:42.186Z,7.70
2023-01-09T01:16:11.818Z,7.70
2023-01-09T01:18:39.066Z,7.60
2023-01-09T01:21:07.826Z,7.60
2023-01-09T01:23:34.727Z,7.60
2023-01-09T01:26:19.329Z,7.60
2023-01-09T01:28:46.022Z,7.60
2023-01-09T01:31:17.494Z,7.60
2023-01-09T01:33:44.205Z,7.60
2023-01-09T01:36:10.952Z,7.60
2023-01-09T01:38:40.712Z,7.70
2023-01-09T01:41:07.584Z,7.70
2023-01-09T01:43:55.316Z,7.70
2023-01-09T01:46:23.007Z,7.70
2023-01-09T01:48:55.965Z,7.70
2023-01-09T01:51:25.478Z,7.70
2023-01-09T01:53:56.626Z,7.70
2023-01-09T01:56:27.651Z,7.60
2023-01-09T01:59:31.986Z,7.60
2023-01-09T02:02:03.111Z,7.50
2023-01-09T02:04:32.161Z,7.40
2023-01-09T02:07:02.994Z,7.40
2023-01-09T02:09:32.793Z,7.30
2023-01-09T02:12:00.895Z,7.30
2023-01-09T02:14:30.463Z,7.30
2023-01-09T02:17:14.871Z,7.30
2023-01-09T02:20:12.498Z,7.30
2023-01-09T02:23:10.606Z,7.20
2023-01-09T02:26:07.463Z,7.20
2023-01-09T02:28:51.939Z,7.10
2023-01-09T02:31:18.587Z,7.00
2023-01-09T02:34:00.711Z,6.90
2023-01-09T02:36:57.981Z,6.90
2023-01-09T02:39:38.279Z,6.80
2023-01-09T02:42:39.718Z,6.70
2023-01-09T02:45:06.874Z,6.60
2023-01-09T02:47:45.436Z,6.60
2023-01-09T02:50:35.597Z,6.50
2023-01-09T02:53:18.318Z,6.50
2023-01-09T02:55:54.137Z,6.40
2023-01-09T02:58:51.415Z,6.50
2023-01-09T03:01:48.087Z,6.60
2023-01-09T03:04:44.135Z,6.60
2023-01-09T03:07:18.547Z,6.60
2023-01-09T03:09:48.816Z,6.70
2023-01-09T03:12:22.334Z,6.60
2023-01-09T03:14:55.678Z,6.60
2023-01-09T03:17:31.867Z,6.60
2023-01-09T03:20:00.895Z,6.70
2023-01-09T03:22:27.780Z,6.70
2023-01-09T03:24:54.414Z,6.70
2023-01-09T03:27:21.213Z,6.80
2023-01-09T03:29:47.910Z,6.80
2023-01-09T03:32:17.577Z,6.80
2023-01-09T03:34:44.282Z,6.80
2023-01-09T03:37:11.130Z,6.80
2023-01-09T03:39:37.837Z,6.80
2023-01-09T03:42:04.796Z,6.80
2023-01-09T03:44:31.422Z,6.80
2023-01-09T03:47:00.431Z,6.80
2023-01-09T03:49:27.111Z,6.80
2023-01-09T03:51:54.035Z,6.80
2023-01-09T03:54:20.730Z,6.80
2023-01-09T03:56:47.407Z,6.70
2023-01-09T03:59:14.071Z,6.70
2023-01-09T04:01:43.669Z,6.70
2023-01-09T04:04:10.441Z,6.70
2023-01-09T04:06:39.481Z,6.70
2023-01-09T04:09:06.161Z,6.70
2023-01-09T04:11:32.849Z,6.70
2023-01-09T04:13:59.504Z,6.80
2023-01-09T04:16:26.275Z,6.80
2023-01-09T04:18:52.946Z,6.80
2023-01-09T04:21:19.575Z,6.80
2023-01-09T04:23:46.461Z,6.70
2023-01-09T04:26:13.226Z,6.80
2023-01-09T04:28:40.152Z,6.80
2023-01-09T04:31:06.860Z,6.80
2023-01-09T04:33:36.717Z,6.70
2023-01-09T04:36:03.608Z,6.70
2023-01-09T04:38:33.357Z,6.70
2023-01-09T04:41:00.040Z,6.70
2023-01-09T04:43:26.716Z,6.60
2023-01-09T04:45:53.415Z,6.60
2023-01-09T04:48:22.235Z,6.60
2023-01-09T04:50:48.939Z,6.60
2023-01-09T04:53:15.591Z,6.60
2023-01-09T04:55:43.067Z,6.60
2023-01-09T04:58:09.766Z,6.60
2023-01-09T05:00:36.534Z,6.60
2023-01-09T05:03:03.267Z,6.60
2023-01-09T05:05:30.182Z,6.60
2023-01-09T05:07:59.480Z,6.70
2023-01-09T05:10:26.174Z,6.60
2023-01-09T05:12:52.882Z,6.60
2023-01-09T05:15:19.621Z,6.60
2023-01-09T05:17:51.415Z,6.60
2023-01-09T05:20:18.129Z,6.50
2023-01-09T05:22:44.785Z,6.40
2023-01-09T05:25:11.502Z,6.30
2023-01-09T05:27:38.248Z,6.30
2023-01-09T05:30:05.375Z,6.20
2023-01-09T05:32:32.041Z,6.10
2023-01-09T05:34:58.684Z,6.10
2023-01-09T05:37:25.394Z,6.00
2023-01-09T05:39:52.057Z,6.00
2023-01-09T05:42:18.770Z,6.00
2023-01-09T05:44:45.429Z,6.00
2023-01-09T05:47:12.147Z,6.10
2023-01-09T05:49:38.796Z,6.10
2023-01-09T05:52:05.519Z,6.00
2023-01-09T05:54:32.155Z,5.90
2023-01-09T05:56:58.803Z,5.80
2023-01-09T05:59:25.585Z,5.70
2023-01-09T06:01:52.306Z,5.60
2023-01-09T06:04:19.423Z,5.50
2023-01-09T06:06:46.326Z,5.40
2023-01-09T06:09:13.102Z,5.40
2023-01-09T06:11:39.811Z,5.40
2023-01-09T06:14:08.913Z,5.60
2023-01-09T06:16:35.685Z,5.70
2023-01-09T06:19:05.929Z,5.80
2023-01-09T06:21:33.293Z,5.80
2023-01-09T06:24:00.192Z,5.80
2023-01-09T06:26:27.228Z,5.80
2023-01-09T06:28:57.097Z,5.70
2023-01-09T06:31:25.126Z,5.60
2023-01-09T06:33:52.293Z,5.40
2023-01-09T06:36:22.804Z,5.40
2023-01-09T06:38:49.535Z,5.40
2023-01-09T06:41:16.358Z,5.50
2023-01-09T06:43:43.238Z,5.50
2023-01-09T06:46:10.006Z,5.60
2023-01-09T06:48:36.824Z,5.70
2023-01-09T06:51:03.785Z,5.80
2023-01-09T06:53:30.433Z,5.90
2023-01-09T06:55:57.125Z,6.00
2023-01-09T06:58:23.801Z,6.10
2023-01-09T07:00:50.631Z,6.10
2023-01-09T07:03:19.873Z,6.10
2023-01-09T07:05:47.445Z,6.20
2023-01-09T07:08:15.046Z,6.20
2023-01-09T07:10:45.159Z,6.20
2023-01-09T07:13:11.967Z,6.20
2023-01-09T07:15:38.824Z,6.20
2023-01-09T07:18:05.694Z,6.20
2023-01-09T07:20:32.355Z,6.10
2023-01-09T07:22:59.008Z,6.00
2023-01-09T07:25:25.814Z,6.00
2023-01-09T07:27:52.507Z,5.90
2023-01-09T07:30:19.291Z,5.80
2023-01-09T07:32:46.003Z,5.90
2023-01-09T07:35:12.666Z,5.90
2023-01-09T07:37:39.460Z,6.00
2023-01-09T07:40:06.834Z,6.10
2023-01-09T07:42:33.577Z,6.10
2023-01-09T07:45:00.276Z,6.10
2023-01-09T07:47:26.918Z,6.20
2023-01-09T07:49:53.552Z,6.30
2023-01-09T07:52:20.202Z,6.40
2023-01-09T07:54:46.920Z,6.40
2023-01-09T07:57:13.848Z,6.50
2023-01-09T07:59:40.543Z,6.60
2023-01-09T08:02:09.278Z,6.70
2023-01-09T08:04:36.081Z,6.80
2023-01-09T08:07:03.354Z,6.90
2023-01-09T08:09:34.905Z,7.10
2023-01-09T08:12:01.648Z,7.20
2023-01-09T08:14:28.301Z,7.30
2023-01-09T08:16:55.093Z,7.20
2023-01-09T08:19:21.875Z,7.10
2023-01-09T08:21:48.513Z,7.00
2023-01-09T08:24:15.263Z,6.90
2023-01-09T08:26:41.960Z,6.80
2023-01-09T08:29:08.672Z,6.80
2023-01-09T08:31:35.434Z,6.80
2023-01-09T08:34:02.444Z,6.80
2023-01-09T08:36:31.848Z,6.80
2023-01-09T08:38:58.616Z,6.70
2023-01-09T08:41:43.852Z,6.80
2023-01-09T08:44:29.303Z,6.80
2023-01-09T08:47:08.177Z,6.90
2023-01-09T08:49:37.192Z,6.80
2023-01-09T08:52:04.941Z,6.70
2023-01-09T08:54:31.831Z,6.60
2023-01-09T08:56:58.623Z,6.60
2023-01-09T08:59:25.357Z,6.50
2023-01-09T09:01:52.170Z,6.60
2023-01-09T09:04:18.958Z,6.50
2023-01-09T09:06:47.717Z,6.70
2023-01-09T09:09:14.524Z,6.80
2023-01-09T09:11:44.260Z,6.80
2023-01-09T09:14:29.656Z,6.90
2023-01-09T09:16:56.500Z,6.90
2023-01-09T09:19:23.413Z,6.80
2023-01-09T09:21:52.932Z,6.80
2023-01-09T09:24:19.701Z,6.80
2023-01-09T09:26:46.383Z,6.80
2023-01-09T09:29:13.316Z,6.80
2023-01-09T09:31:40.001Z,6.70
2023-01-09T09:34:07.408Z,6.60
2023-01-09T09:36:34.180Z,6.60
2023-01-09T09:39:04.653Z,6.50
2023-01-09T09:42:17.498Z,6.60
2023-01-09T09:45:25.551Z,6.50
2023-01-09T09:48:11.111Z,6.50
2023-01-09T09:51:15.442Z,6.50
2023-01-09T09:53:49.449Z,6.50
2023-01-09T09:56:19.897Z,6.60
2023-01-09T09:58:51.317Z,6.50
2023-01-09T10:02:02.450Z,6.60
2023-01-09T10:04:32.224Z,6.70
2023-01-09T10:07:09.177Z,6.70
2023-01-09T10:09:55.605Z,6.70
2023-01-09T10:12:31.845Z,6.70
2023-01-09T10:15:01.486Z,6.60
2023-01-09T10:18:01.013Z,6.70
2023-01-09T10:20:34.504Z,6.80
2023-01-09T10:23:08.176Z,7.00
2023-01-09T10:26:05.115Z,7.20
2023-01-09T10:28:53.363Z,7.40
2023-01-09T10:31:43.417Z,7.50
2023-01-09T10:34:28.798Z,7.60
2023-01-09T10:37:01.228Z,7.60
2023-01-09T10:39:40.465Z,7.60
2023-01-09T10:42:34.290Z,7.60
2023-01-09T10:45:17.032Z,7.60
2023-01-09T10:47:44.967Z,7.60
2023-01-09T10:50:35.699Z,7.70
2023-01-09T10:53:20.451Z,7.70
2023-01-09T10:55:48.236Z,7.60
2023-01-09T10:58:17.734Z,7.50
2023-01-09T11:00:45.336Z,7.50
2023-01-09T11:03:14.161Z,7.60
2023-01-09T11:05:41.689Z,7.60
2023-01-09T11:08:41.862Z,7.60
2023-01-09T11:11:09.766Z,7.70
2023-01-09T11:13:38.397Z,7.80
2023-01-09T11:16:11.253Z,7.90
2023-01-09T11:19:00.441Z,8.10
2023-01-09T11:21:42.042Z,8.20
2023-01-09T11:24:21.470Z,8.20
2023-01-09T11:26:51.076Z,8.10
2023-01-09T11:29:20.237Z,7.90
2023-01-09T11:32:00.179Z,7.90
2023-01-09T11:34:36.349Z,7.90
2023-01-09T11:37:10.277Z,7.90
2023-01-09T11:39:41.651Z,8.00
2023-01-09T11:42:44.570Z,8.00
2023-01-09T11:45:36.044Z,8.10
2023-01-09T11:48:17.196Z,8.10
2023-01-09T11:50:54.858Z,8.10
2023-01-09T11:53:22.322Z,8.20
2023-01-09T11:55:57.125Z,8.10
2023-01-09T11:58:24.031Z,8.20
2023-01-09T12:01:08.769Z,8.00
2023-01-09T12:04:01.504Z,8.00
2023-01-09T12:07:11.809Z,7.90
2023-01-09T12:09:57.996Z,7.80
2023-01-09T12:12:35.540Z,7.80
2023-01-09T12:15:28.479Z,7.80
2023-01-09T12:18:04.269Z,7.90
2023-01-09T12:20:49.706Z,8.00
2023-01-09T12:23:41.274Z,8.10
2023-01-09T12:26:22.771Z,8.30
2023-01-09T12:29:08.269Z,8.40
2023-01-09T12:31:49.852Z,8.60
2023-01-09T12:34:54.082Z,8.70
2023-01-09T12:37:41.832Z,8.60
2023-01-09T12:40:20.524Z,8.60
2023-01-09T12:42:58.612Z,8.50
2023-01-09T12:45:34.458Z,8.50
2023-01-09T12:48:27.126Z,8.40
2023-01-09T12:50:53.778Z,8.30
2023-01-09T12:53:35.633Z,8.30
2023-01-09T12:56:11.262Z,8.30
2023-01-09T12:58:52.365Z,8.30
2023-01-09T13:01:28.240Z,8.30
2023-01-09T13:04:21.830Z,8.40
2023-01-09T13:06:54.551Z,8.30
2023-01-09T13:09:36.237Z,8.40
2023-01-09T13:12:04.444Z,8.50
2023-01-09T13:14:46.030Z,8.70
2023-01-09T13:17:27.701Z,8.80
2023-01-09T13:19:54.512Z,8.90
2023-01-09T13:22:28.001Z,8.90
2023-01-09T13:25:16.736Z,9.00
2023-01-09T13:27:55.956Z,9.20
2023-01-09T13:30:44.225Z,9.10
2023-01-09T13:33:37.087Z,9.30
2023-01-09T13:36:05.322Z,9.30
2023-01-09T13:38:35.427Z,9.20
2023-01-09T13:41:26.132Z,9.30
2023-01-09T13:43:59.656Z,9.40
2023-01-09T13:46:37.094Z,9.40
2023-01-09T13:49:04.358Z,9.30
2023-01-09T13:51:56.073Z,9.20
2023-01-09T13:54:55.257Z,9.00
2023-01-09T13:57:24.782Z,8.70
2023-01-09T13:59:51.949Z,8.50
2023-01-09T14:02:36.917Z,8.20
2023-01-09T14:05:08.990Z,8.10
2023-01-09T14:07:56.507Z,8.00
2023-01-09T14:10:29.825Z,7.90
2023-01-09T14:12:57.664Z,7.80
2023-01-09T14:15:51.108Z,7.60
2023-01-09T14:18:25.880Z,7.50
2023-01-09T14:20:58.297Z,7.50
2023-01-09T14:23:50.510Z,7.50
2023-01-09T14:26:25.550Z,7.50
2023-01-09T14:28:52.275Z,7.70
2023-01-09T14:31:32.795Z,7.70
2023-01-09T14:34:32.607Z,7.80
2023-01-09T14:37:02.813Z,7.70
2023-01-09T14:39:35.374Z,7.60
2023-01-09T14:42:09.469Z,7.60
2023-01-09T14:44:44.813Z,7.50
2023-01-09T14:47:41.748Z,7.60
2023-01-09T14:50:28.031Z,7.50
2023-01-09T14:53:16.910Z,7.50
2023-01-09T14:55:51.298Z,7.40
2023-01-09T14:58:28.113Z,7.30
2023-01-09T15:01:18.876Z,7.10
2023-01-09T15:04:01.048Z,7.00
2023-01-09T15:06:37.733Z,6.90
2023-01-09T15:09:23.068Z,6.80
2023-01-09T15:11:50.340Z,6.70
2023-01-09T15:14:29.733Z,6.70
2023-01-09T15:16:57.380Z,6.60
2023-01-09T15:19:24.280Z,6.60
2023-01-09T15:21:59.697Z,6.70
2023-01-09T15:24:29.667Z,6.70
2023-01-09T15:26:59.349Z,6.80
2023-01-09T15:29:29.449Z,6.80
2023-01-09T15:32:04.385Z,6.90
2023-01-09T15:34:32.225Z,6.80
2023-01-09T15:37:03.101Z,6.80
2023-01-09T15:39:35.888Z,6.80
2023-01-09T15:42:22.244Z,6.70
2023-01-09T15:44:55.137Z,6.70
2023-01-09T15:47:27.695Z,6.60
2023-01-09T15:49:56.690Z,6.60
2023-01-09T15:52:24.206Z,6.50
2023-01-09T15:54:51.864Z,6.50
2023-01-09T15:57:30.776Z,6.50
2023-01-09T16:00:18.269Z,6.40
2023-01-09T16:03:04.590Z,6.50
2023-01-09T16:05:33.325Z,6.50
2023-01-09T16:08:01.891Z,6.50
2023-01-09T16:10:37.799Z,6.50
2023-01-09T16:13:04.634Z,6.50
2023-01-09T16:15:34.710Z,6.40
2023-01-09T16:18:16.642Z,6.40
2023-01-09T16:20:44.361Z,6.40
2023-01-09T16:23:37.408Z,6.30
2023-01-09T16:26:13.195Z,6.20
2023-01-09T16:28:43.080Z,6.20
2023-01-09T16:31:24.559Z,6.10
2023-01-09T16:34:04.447Z,6.10
2023-01-09T16:36:31.374Z,6.10
2023-01-09T16:39:00.757Z,6.10
2023-01-09T16:41:46.138Z,6.10
2023-01-09T16:44:12.842Z,6.20
2023-01-09T16:46:45.402Z,6.20
2023-01-09T16:49:20.628Z,6.20
2023-01-09T16:51:50.640Z,6.10
2023-01-09T16:54:17.846Z,6.10
2023-01-09T16:56:54.258Z,6.10
2023-01-09T16:59:27.357Z,6.10
2023-01-09T17:01:54.804Z,6.10
2023-01-09T17:04:25.064Z,6.10
2023-01-09T17:06:51.862Z,6.10
2023-01-09T17:09:22.133Z,6.10
2023-01-09T17:11:48.884Z,6.10
2023-01-09T17:14:15.694Z,6.10
2023-01-09T17:16:45.727Z,6.00
2023-01-09T17:19:21.595Z,6.00
2023-01-09T17:21:48.348Z,5.90
2023-01-09T17:24:34.759Z,5.70
2023-01-09T17:27:20.924Z,5.70
2023-01-09T17:29:48.414Z,5.60
2023-01-09T17:32:16.552Z,5.70
2023-01-09T17:34:43.813Z,5.80
2023-01-09T17:37:16.088Z,5.80
2023-01-09T17:39:46.071Z,5.90
2023-01-09T17:42:12.826Z,5.90
2023-01-09T17:44:39.578Z,5.90
2023-01-09T17:47:07.256Z,5.90
2023-01-09T17:49:34.173Z,5.90
2023-01-09T17:52:00.949Z,5.90
2023-01-09T17:54:27.624Z,5.90
2023-01-09T17:56:54.618Z,5.90
2023-01-09T17:59:21.381Z,5.80
2023-01-09T18:01:48.338Z,5.80
2023-01-09T18:04:15.173Z,5.80
2023-01-09T18:06:41.893Z,5.90
2023-01-09T18:09:12.637Z,5.90
2023-01-09T18:11:40.677Z,5.80
2023-01-09T18:14:08.477Z,5.80
2023-01-09T18:16:35.205Z,5.80
2023-01-09T18:19:02.499Z,5.70
2023-01-09T18:21:30.180Z,5.70
2023-01-09T18:23:58.716Z,5.70
2023-01-09T18:26:25.401Z,5.60
2023-01-09T18:28:57.539Z,5.60
2023-01-09T18:31:27.741Z,5.50
2023-01-09T18:33:56.796Z,5.50
2023-01-09T18:36:29.617Z,5.40
2023-01-09T18:38:58.842Z,5.30
2023-01-09T18:41:29.134Z,5.30
2023-01-09T18:43:57.758Z,5.20
2023-01-09T18:46:25.347Z,5.10
2023-01-09T18:48:53.019Z,5.10
2023-01-09T18:51:20.012Z,5.00
2023-01-09T18:53:46.768Z,5.00
2023-01-09T18:56:13.480Z,4.90
2023-01-09T18:58:40.434Z,4.90
2023-01-09T19:01:07.099Z,4.80
2023-01-09T19:03:33.909Z,4.70
2023-01-09T19:06:02.024Z,4.60
2023-01-09T19:08:30.286Z,4.50
2023-01-09T19:10:57.507Z,4.40
2023-01-09T19:13:24.842Z,4.40
2023-01-09T19:15:56.237Z,4.30
2023-01-09T19:18:24.488Z,4.20
2023-01-09T19:20:52.811Z,4.10
2023-01-09T19:23:20.661Z,4.10
2023-01-09T19:25:47.797Z,4.10
2023-01-09T19:28:14.913Z,4.10
2023-01-09T19:30:44.407Z,4.10
2023-01-09T19:33:12.193Z,4.10
2023-01-09T19:35:41.763Z,4.10
2023-01-09T19:38:08.437Z,4.00
2023-01-09T19:40:36.362Z,4.00
2023-01-09T19:43:03.491Z,4.00
2023-01-09T19:45:33.087Z,4.00
2023-01-09T19:48:00.050Z,3.90
2023-01-09T19:50:26.829Z,3.70
2023-01-09T19:53:04.406Z,3.50
2023-01-09T19:55:31.112Z,3.30
2023-01-09T19:57:58.119Z,3.20
2023-01-09T20:00:26.572Z,3.00
2023-01-09T20:02:53.251Z,2.90
2023-01-09T20:05:19.871Z,2.90
2023-01-09T20:07:46.559Z,2.80
2023-01-09T20:10:29.013Z,2.80
2023-01-09T20:12:55.746Z,2.80
2023-01-09T20:15:22.750Z,2.90
2023-01-09T20:17:49.542Z,3.20
2023-01-09T20:22:43.280Z,3.50
2023-01-09T20:25:11.195Z,3.70
2023-01-09T20:27:37.983Z,3.80
2023-01-09T20:30:05.454Z,3.90
2023-01-09T20:32:32.527Z,4.00
2023-01-09T20:35:01.594Z,4.10
2023-01-09T20:37:28.577Z,4.10
2023-01-09T20:39:55.258Z,4.10
2023-01-09T20:42:24.094Z,4.20
2023-01-09T20:44:51.654Z,4.20
2023-01-09T20:51:07.564Z,4.20
2023-01-09T20:53:34.239Z,4.10
2023-01-09T20:56:06.563Z,4.10
2023-01-09T20:58:35.340Z,4.20
2023-01-09T21:01:13.361Z,4.20
2023-01-09T21:03:41.021Z,4.20
2023-01-09T21:06:13.571Z,4.20
2023-01-09T21:08:43.040Z,4.20
2023-01-09T21:11:10.330Z,4.20
2023-01-09T21:13:37.144Z,4.20
2023-01-09T21:16:09.734Z,4.20
2023-01-09T21:18:37.012Z,4.30
2023-01-09T21:21:05.552Z,4.30
2023-01-09T21:23:32.697Z,4.30
2023-01-09T21:25:59.806Z,4.30
2023-01-09T21:28:28.324Z,4.30
2023-01-09T21:30:55.034Z,4.30
2023-01-09T21:33:21.962Z,4.40
2023-01-09T21:35:56.082Z,4.40
2023-01-09T21:38:24.076Z,4.50
2023-01-09T21:40:52.143Z,4.50
2023-01-09T21:43:48.552Z,4.60
2023-01-09T21:46:36.080Z,4.60
2023-01-09T21:49:03.877Z,4.70
2023-01-09T21:51:30.641Z,4.70
2023-01-09T21:53:57.324Z,4.70
2023-01-09T21:56:24.032Z,4.80
2023-01-09T21:58:50.794Z,4.90
2023-01-09T22:01:17.544Z,4.90
2023-01-09T22:03:45.032Z,4.90
2023-01-09T22:06:14.063Z,4.90
2023-01-09T22:08:40.768Z,4.90
2023-01-09T22:11:07.494Z,4.90
2023-01-09T22:13:34.191Z,4.90
2023-01-09T22:16:06.250Z,4.80
2023-01-09T22:18:34.542Z,4.80
2023-01-09T22:21:02.295Z,4.80
2023-01-09T22:23:29.404Z,4.70
2023-01-09T22:25:56.382Z,4.70
2023-01-09T22:28:23.917Z,4.60
2023-01-09T22:30:50.642Z,4.60
2023-01-09T22:33:18.147Z,4.50
2023-01-09T22:35:47.720Z,4.40
2023-01-09T22:38:14.529Z,4.30
2023-01-09T22:40:41.352Z,4.20
2023-01-09T22:43:08.527Z,4.00
2023-01-09T22:45:37.040Z,3.90
2023-01-09T22:48:03.889Z,3.80
2023-01-09T22:50:30.895Z,3.80
2023-01-09T22:53:01.709Z,3.80
2023-01-09T22:55:28.419Z,3.80
2023-01-09T22:57:55.139Z,3.80
2023-01-09T23:00:21.837Z,3.90
2023-01-09T23:02:51.846Z,3.90
2023-01-09T23:05:19.724Z,3.90
2023-01-09T23:07:46.439Z,3.90
2023-01-09T23:10:13.108Z,4.00
2023-01-09T23:12:39.796Z,4.10
2023-01-09T23:15:08.932Z,4.10
2023-01-09T23:17:35.605Z,4.30
2023-01-09T23:20:02.303Z,4.30
2023-01-09T23:22:29.032Z,4.40
2023-01-09T23:24:55.710Z,4.50
2023-01-09T23:27:22.432Z,4.50
2023-01-09T23:29:49.160Z,4.60
2023-01-09T23:32:15.948Z,4.70
2023-01-09T23:34:45.237Z,4.70
2023-01-09T23:37:12.019Z,4.70
2023-01-09T23:39:38.896Z,4.80
2023-01-09T23:42:26.209Z,4.90
2023-01-09T23:44:52.807Z,5.00
2023-01-09T23:47:19.505Z,5.00
2023-01-09T23:49:49.037Z,5.00
2023-01-09T23:52:15.836Z,4.90
2023-01-09T23:54:42.784Z,4.70
2023-01-09T23:57:09.448Z,4.50
2023-01-09T23:59:36.068Z,4.30
